createdAt,value
2023-03-29T00:00:58.576Z,34.58
2023-03-29T00:01:58.546Z,36.99
2023-03-29T00:02:58.706Z,38.19
2023-03-29T00:04:01.797Z,37.81
2023-03-29T00:04:58.940Z,37.69
2023-03-29T00:05:59.105Z,37.92
2023-03-29T00:06:59.252Z,37.97
2023-03-29T00:07:59.469Z,37.51
2023-03-29T00:08:59.532Z,36.80
2023-03-29T00:09:59.683Z,36.27
2023-03-29T00:11:00.077Z,35.28
2023-03-29T00:11:59.943Z,35.68
2023-03-29T00:13:00.097Z,35.51
2023-03-29T00:14:00.198Z,35.55
2023-03-29T00:15:00.348Z,34.19
2023-03-29T00:16:00.441Z,34.60
2023-03-29T00:17:00.614Z,34.68
2023-03-29T00:18:00.730Z,34.75
2023-03-29T00:19:00.781Z,36.20
2023-03-29T00:20:00.904Z,38.22
2023-03-29T00:21:01.115Z,37.84
2023-03-29T00:22:01.178Z,37.32
2023-03-29T00:23:01.295Z,37.61
2023-03-29T00:24:01.420Z,38.34
2023-03-29T00:25:01.562Z,38.20
2023-03-29T00:26:01.752Z,38.19
2023-03-29T00:27:01.853Z,38.01
2023-03-29T00:28:02.007Z,38.26
2023-03-29T00:29:02.164Z,38.56
2023-03-29T00:30:02.294Z,38.44
2023-03-29T00:31:02.617Z,39.01
2023-03-29T00:32:02.622Z,39.63
2023-03-29T00:33:02.877Z,39.42
2023-03-29T00:34:02.935Z,39.20
2023-03-29T00:35:03.086Z,38.81
2023-03-29T00:36:03.360Z,38.66
2023-03-29T00:37:03.396Z,37.77
2023-03-29T00:38:03.544Z,37.48
2023-03-29T00:39:03.693Z,36.70
2023-03-29T00:40:03.840Z,36.14
2023-03-29T00:41:04.257Z,36.22
2023-03-29T00:42:04.104Z,36.49
2023-03-29T00:43:04.225Z,36.27
2023-03-29T00:44:04.379Z,36.54
2023-03-29T00:45:04.470Z,37.82
2023-03-29T00:46:04.646Z,37.23
2023-03-29T00:47:04.718Z,37.90
2023-03-29T00:48:05.077Z,38.54
2023-03-29T00:49:05.104Z,39.02
2023-03-29T00:50:05.222Z,42.22
2023-03-29T00:51:05.401Z,43.53
2023-03-29T00:52:05.545Z,45.06
2023-03-29T00:53:05.734Z,45.94
2023-03-29T00:54:05.917Z,45.82
2023-03-29T00:55:06.101Z,44.72
2023-03-29T00:56:06.303Z,47.64
2023-03-29T00:57:06.485Z,46.83
2023-03-29T00:58:06.610Z,48.98
2023-03-29T00:59:06.771Z,48.70
2023-03-29T01:00:06.936Z,51.29
2023-03-29T01:01:07.086Z,50.74
2023-03-29T01:02:07.336Z,49.72
2023-03-29T01:03:07.512Z,52.46
2023-03-29T01:04:07.562Z,55.35
2023-03-29T01:05:07.651Z,54.22
2023-03-29T01:06:07.785Z,56.19
2023-03-29T01:07:07.907Z,57.34
2023-03-29T01:08:08.024Z,56.69
2023-03-29T01:09:08.171Z,54.25
2023-03-29T01:10:08.310Z,54.50
2023-03-29T01:11:08.468Z,57.11
2023-03-29T01:12:08.700Z,55.15
2023-03-29T01:13:08.780Z,54.89
2023-03-29T01:14:08.975Z,54.84
2023-03-29T01:15:09.132Z,55.21
2023-03-29T01:16:09.398Z,56.45
2023-03-29T01:17:09.514Z,56.40
2023-03-29T01:18:09.752Z,56.75
2023-03-29T01:19:09.902Z,55.64
2023-03-29T01:20:10.095Z,56.28
2023-03-29T01:21:10.291Z,55.94
2023-03-29T01:22:10.495Z,55.86
2023-03-29T01:23:10.649Z,60.99
2023-03-29T01:24:10.837Z,59.71
2023-03-29T01:25:11.057Z,58.40
2023-03-29T01:26:11.237Z,57.95
2023-03-29T01:27:11.830Z,58.32
2023-03-29T01:28:11.618Z,57.94
2023-03-29T01:29:11.802Z,58.38
2023-03-29T01:30:11.992Z,60.54
2023-03-29T01:31:12.177Z,60.84
2023-03-29T01:32:12.359Z,60.01
2023-03-29T01:33:12.555Z,60.17
2023-03-29T01:34:12.747Z,61.40
2023-03-29T01:35:12.924Z,59.88
2023-03-29T01:36:13.123Z,60.60
2023-03-29T01:37:13.293Z,63.13
2023-03-29T01:38:13.520Z,62.90
2023-03-29T01:39:13.659Z,63.41
2023-03-29T01:40:13.821Z,60.85
2023-03-29T01:41:13.980Z,62.38
2023-03-29T01:42:14.129Z,63.12
2023-03-29T01:43:14.284Z,63.02
2023-03-29T01:44:14.421Z,63.76
2023-03-29T01:45:14.560Z,63.80
2023-03-29T01:46:14.767Z,63.06
2023-03-29T01:47:14.899Z,62.88
2023-03-29T01:48:15.047Z,62.64
2023-03-29T01:49:15.208Z,62.59
2023-03-29T01:50:15.370Z,63.06
2023-03-29T01:51:15.510Z,64.69
2023-03-29T01:52:15.676Z,67.41
2023-03-29T01:53:15.840Z,68.45
2023-03-29T01:54:16.018Z,66.69
2023-03-29T01:55:16.180Z,67.95
2023-03-29T01:56:16.348Z,68.78
2023-03-29T01:57:16.576Z,69.07
2023-03-29T01:58:16.684Z,69.84
2023-03-29T01:59:16.881Z,70.47
2023-03-29T02:00:17.095Z,70.56
2023-03-29T02:01:17.341Z,72.63
2023-03-29T02:02:17.619Z,73.37
2023-03-29T02:03:17.819Z,71.68
2023-03-29T02:04:17.997Z,71.67
2023-03-29T02:05:18.223Z,73.14
2023-03-29T02:06:18.400Z,72.12
2023-03-29T02:07:19.304Z,71.27
2023-03-29T02:08:18.828Z,71.70
2023-03-29T02:09:19.092Z,70.20
2023-03-29T02:10:19.276Z,69.32
2023-03-29T02:11:19.475Z,69.65
2023-03-29T02:12:19.694Z,72.52
2023-03-29T02:13:19.898Z,73.46
2023-03-29T02:14:20.073Z,72.84
2023-03-29T02:15:20.272Z,71.68
2023-03-29T02:16:20.835Z,70.28
2023-03-29T02:17:20.674Z,69.90
2023-03-29T02:18:20.906Z,72.05
2023-03-29T02:19:21.097Z,72.41
2023-03-29T02:20:21.292Z,72.72
2023-03-29T02:21:21.521Z,72.27
2023-03-29T02:22:21.743Z,72.62
2023-03-29T02:23:21.969Z,71.07
2023-03-29T02:24:22.189Z,70.66
2023-03-29T02:25:22.376Z,70.51
2023-03-29T02:26:22.565Z,69.65
2023-03-29T02:27:22.736Z,69.71
2023-03-29T02:28:22.923Z,69.21
2023-03-29T02:29:23.104Z,67.91
2023-03-29T02:30:23.278Z,68.02
2023-03-29T02:31:23.485Z,66.58
2023-03-29T02:32:23.678Z,66.55
2023-03-29T02:33:23.790Z,65.68
2023-03-29T02:34:24.809Z,65.74
2023-03-29T02:35:24.145Z,65.76
2023-03-29T02:36:24.321Z,65.21
2023-03-29T02:37:24.491Z,65.07
2023-03-29T02:38:24.670Z,63.87
2023-03-29T02:39:24.834Z,64.21
2023-03-29T02:40:24.993Z,64.49
2023-03-29T02:41:25.146Z,65.74
2023-03-29T02:42:25.312Z,67.58
2023-03-29T02:43:26.096Z,68.79
2023-03-29T02:44:25.666Z,69.35
2023-03-29T02:45:25.903Z,71.59
2023-03-29T02:46:26.111Z,71.55
2023-03-29T02:47:26.282Z,70.33
2023-03-29T02:48:26.818Z,70.47
2023-03-29T02:49:26.638Z,70.21
2023-03-29T02:50:26.831Z,70.20
2023-03-29T02:51:27.057Z,70.31
2023-03-29T02:52:27.249Z,69.64
2023-03-29T02:53:27.462Z,69.35
2023-03-29T02:54:27.671Z,68.99
2023-03-29T02:55:28.813Z,68.66
2023-03-29T02:56:28.076Z,70.41
2023-03-29T02:57:28.308Z,71.22
2023-03-29T02:58:28.505Z,70.84
2023-03-29T02:59:28.719Z,69.32
2023-03-29T03:00:28.936Z,69.41
2023-03-29T03:01:29.193Z,68.67
2023-03-29T03:02:29.366Z,67.54
2023-03-29T03:03:29.615Z,68.01
2023-03-29T03:04:29.771Z,67.49
2023-03-29T03:05:29.973Z,67.26
2023-03-29T03:06:30.177Z,66.41
2023-03-29T03:07:30.381Z,66.19
2023-03-29T03:08:30.581Z,65.53
2023-03-29T03:09:30.756Z,65.91
2023-03-29T03:10:30.960Z,66.04
2023-03-29T03:11:31.246Z,66.75
2023-03-29T03:12:31.381Z,66.58
2023-03-29T03:13:31.604Z,66.25
2023-03-29T03:14:31.847Z,66.11
2023-03-29T03:15:32.815Z,66.98
2023-03-29T03:16:32.306Z,66.87
2023-03-29T03:17:32.550Z,66.38
2023-03-29T03:18:32.729Z,67.42
2023-03-29T03:19:32.979Z,67.37
2023-03-29T03:20:33.173Z,67.09
2023-03-29T03:21:33.405Z,67.86
2023-03-29T03:22:33.613Z,67.50
2023-03-29T03:23:33.843Z,67.74
2023-03-29T03:24:34.073Z,67.55
2023-03-29T03:25:34.296Z,68.86
2023-03-29T03:26:34.538Z,68.89
2023-03-29T03:27:34.751Z,69.82
2023-03-29T03:28:34.955Z,71.68
2023-03-29T03:29:35.162Z,71.93
2023-03-29T03:30:35.376Z,71.60
2023-03-29T03:31:35.679Z,73.79
2023-03-29T03:32:35.848Z,72.93
2023-03-29T03:33:36.055Z,73.15
2023-03-29T03:34:36.296Z,72.17
2023-03-29T03:35:36.519Z,72.20
2023-03-29T03:36:36.704Z,73.66
2023-03-29T03:37:36.903Z,73.63
2023-03-29T03:38:37.103Z,73.88
2023-03-29T03:39:37.309Z,73.67
2023-03-29T03:40:37.522Z,74.11
2023-03-29T03:41:37.731Z,73.45
2023-03-29T03:42:37.945Z,74.85
2023-03-29T03:43:38.183Z,74.81
2023-03-29T03:44:38.376Z,73.58
2023-03-29T03:45:38.621Z,74.99
2023-03-29T03:46:38.819Z,74.36
2023-03-29T03:47:39.069Z,74.66
2023-03-29T03:48:39.255Z,74.96
2023-03-29T03:49:39.470Z,75.02
2023-03-29T03:50:39.697Z,74.67
2023-03-29T03:51:39.895Z,73.36
2023-03-29T03:52:40.163Z,72.02
2023-03-29T03:53:40.292Z,71.52
2023-03-29T03:54:40.461Z,70.80
2023-03-29T03:55:40.635Z,72.01
2023-03-29T03:56:40.842Z,72.10
2023-03-29T03:57:40.957Z,70.78
2023-03-29T03:58:41.118Z,70.13
2023-03-29T03:59:41.284Z,69.90
2023-03-29T04:00:41.461Z,71.24
2023-03-29T04:01:41.649Z,71.45
2023-03-29T04:02:41.869Z,71.24
2023-03-29T04:03:42.151Z,70.38
2023-03-29T04:04:42.304Z,71.44
2023-03-29T04:05:42.518Z,71.57
2023-03-29T04:06:43.783Z,71.81
2023-03-29T04:07:42.955Z,72.02
2023-03-29T04:08:43.176Z,72.15
2023-03-29T04:09:43.422Z,70.87
2023-03-29T04:10:43.711Z,70.78
2023-03-29T04:11:43.842Z,70.09
2023-03-29T04:12:44.070Z,68.84
2023-03-29T04:13:44.276Z,68.29
2023-03-29T04:14:44.449Z,68.16
2023-03-29T04:15:44.654Z,67.74
2023-03-29T04:16:44.807Z,67.10
2023-03-29T04:17:45.060Z,67.17
2023-03-29T04:18:45.355Z,66.35
2023-03-29T04:19:45.361Z,66.09
2023-03-29T04:20:46.316Z,66.22
2023-03-29T04:21:45.708Z,66.08
2023-03-29T04:22:45.901Z,66.61
2023-03-29T04:23:46.092Z,66.54
2023-03-29T04:24:46.277Z,67.30
2023-03-29T04:25:46.475Z,68.12
2023-03-29T04:26:46.691Z,68.61
2023-03-29T04:27:46.913Z,69.67
2023-03-29T04:28:47.130Z,70.78
2023-03-29T04:29:47.342Z,69.74
2023-03-29T04:30:47.576Z,69.51
2023-03-29T04:31:47.762Z,70.16
2023-03-29T04:32:47.967Z,71.18
2023-03-29T04:33:48.117Z,71.38
2023-03-29T04:34:48.332Z,70.81
2023-03-29T04:35:48.591Z,69.92
2023-03-29T04:36:48.754Z,70.08
2023-03-29T04:37:48.951Z,70.08
2023-03-29T04:38:49.144Z,69.54
2023-03-29T04:39:49.365Z,69.37
2023-03-29T04:40:50.323Z,68.37
2023-03-29T04:41:49.776Z,68.25
2023-03-29T04:42:49.989Z,68.77
2023-03-29T04:43:50.231Z,68.36
2023-03-29T04:44:50.482Z,68.44
2023-03-29T04:45:50.649Z,68.27
2023-03-29T04:46:50.933Z,68.12
2023-03-29T04:47:51.130Z,68.17
2023-03-29T04:48:51.310Z,67.95
2023-03-29T04:49:51.528Z,68.59
2023-03-29T04:50:51.725Z,68.71
2023-03-29T04:51:51.938Z,69.11
2023-03-29T04:52:52.159Z,68.92
2023-03-29T04:53:52.359Z,68.79
2023-03-29T04:54:52.550Z,67.66
2023-03-29T04:55:52.719Z,67.09
2023-03-29T04:56:52.893Z,66.73
2023-03-29T04:57:53.061Z,66.54
2023-03-29T04:58:53.239Z,67.10
2023-03-29T04:59:53.436Z,66.85
2023-03-29T05:00:53.633Z,66.45
2023-03-29T05:01:53.845Z,66.14
2023-03-29T05:02:54.062Z,65.95
2023-03-29T05:03:54.260Z,65.92
2023-03-29T05:04:54.398Z,65.82
2023-03-29T05:05:54.549Z,65.84
2023-03-29T05:06:54.728Z,66.24
2023-03-29T05:07:54.899Z,67.29
2023-03-29T05:08:55.064Z,68.16
2023-03-29T05:09:55.259Z,69.91
2023-03-29T05:10:55.458Z,70.95
2023-03-29T05:11:55.623Z,70.79
2023-03-29T05:12:55.917Z,70.85
2023-03-29T05:13:55.960Z,70.40
2023-03-29T05:14:56.150Z,70.63
2023-03-29T05:15:56.360Z,70.36
2023-03-29T05:16:56.560Z,73.20
2023-03-29T05:17:56.812Z,72.34
2023-03-29T05:18:57.010Z,71.73
2023-03-29T05:19:57.217Z,72.70
2023-03-29T05:20:57.415Z,73.69
2023-03-29T05:21:57.614Z,73.57
2023-03-29T05:22:57.870Z,73.01
2023-03-29T05:23:58.017Z,72.29
2023-03-29T05:24:58.228Z,71.14
2023-03-29T05:25:58.409Z,71.02
2023-03-29T05:26:58.640Z,70.15
2023-03-29T05:27:58.840Z,70.54
2023-03-29T05:28:59.046Z,70.24
2023-03-29T05:29:59.280Z,71.37
2023-03-29T05:30:59.594Z,71.32
2023-03-29T05:31:59.834Z,70.85
2023-03-29T05:32:59.961Z,71.20
2023-03-29T05:34:00.199Z,70.80
2023-03-29T05:35:00.347Z,70.54
2023-03-29T05:36:00.572Z,71.39
2023-03-29T05:37:00.827Z,71.07
2023-03-29T05:38:00.952Z,70.65
2023-03-29T05:39:01.145Z,71.19
2023-03-29T05:40:05.783Z,71.32
2023-03-29T05:41:01.497Z,72.13
2023-03-29T05:42:01.578Z,72.37
2023-03-29T05:43:01.721Z,72.31
2023-03-29T05:44:01.888Z,71.84
2023-03-29T05:45:02.030Z,71.08
2023-03-29T05:46:02.275Z,71.30
2023-03-29T05:47:02.355Z,71.82
2023-03-29T05:48:02.495Z,72.25
2023-03-29T05:49:02.713Z,71.89
2023-03-29T05:50:02.910Z,72.32
2023-03-29T05:51:03.294Z,73.04
2023-03-29T05:52:03.349Z,73.22
2023-03-29T05:53:03.645Z,74.13
2023-03-29T05:54:03.812Z,75.13
2023-03-29T05:55:04.019Z,74.58
2023-03-29T05:56:04.225Z,74.07
2023-03-29T05:57:04.480Z,74.55
2023-03-29T05:58:04.666Z,73.66
2023-03-29T05:59:04.913Z,73.66
2023-03-29T06:00:05.191Z,73.25
2023-03-29T06:01:05.332Z,73.78
2023-03-29T06:02:05.493Z,73.59
2023-03-29T06:03:17.697Z,72.56
2023-03-29T06:04:06.958Z,72.24
2023-03-29T06:05:06.058Z,71.60
2023-03-29T06:06:06.183Z,71.59
2023-03-29T06:07:07.335Z,71.86
2023-03-29T06:08:06.547Z,72.06
2023-03-29T06:09:06.691Z,71.27
2023-03-29T06:10:06.876Z,71.88
2023-03-29T06:11:07.156Z,74.42
2023-03-29T06:12:07.209Z,75.09
2023-03-29T06:13:07.391Z,75.54
2023-03-29T06:14:07.649Z,77.51
2023-03-29T06:15:07.877Z,76.85
2023-03-29T06:16:08.080Z,77.32
2023-03-29T06:17:08.285Z,78.15
2023-03-29T06:18:08.453Z,77.01
2023-03-29T06:19:08.653Z,77.86
2023-03-29T06:20:08.873Z,78.26
2023-03-29T06:21:09.181Z,78.03
2023-03-29T06:22:09.340Z,78.14
2023-03-29T06:23:10.257Z,77.46
2023-03-29T06:24:09.935Z,77.53
2023-03-29T06:25:11.621Z,76.77
2023-03-29T06:26:10.156Z,76.61
2023-03-29T06:27:10.396Z,76.99
2023-03-29T06:28:10.596Z,75.72
2023-03-29T06:29:10.837Z,76.72
2023-03-29T06:30:11.071Z,76.93
2023-03-29T06:31:11.297Z,76.42
2023-03-29T06:32:11.501Z,75.71
2023-03-29T06:33:11.749Z,76.73
2023-03-29T06:34:11.915Z,77.47
2023-03-29T06:35:12.127Z,77.26
2023-03-29T06:36:12.354Z,77.00
2023-03-29T06:37:12.566Z,75.64
2023-03-29T06:38:12.772Z,75.90
2023-03-29T06:39:12.978Z,76.51
2023-03-29T06:40:13.180Z,75.93
2023-03-29T06:41:13.490Z,75.88
2023-03-29T06:42:21.273Z,75.02
2023-03-29T06:43:14.765Z,76.01
2023-03-29T06:44:13.931Z,75.21
2023-03-29T06:45:14.205Z,75.53
2023-03-29T06:46:14.322Z,74.67
2023-03-29T06:47:14.459Z,74.06
2023-03-29T06:48:14.634Z,73.47
2023-03-29T06:49:14.803Z,74.72
2023-03-29T06:50:14.979Z,73.77
2023-03-29T06:51:15.147Z,73.61
2023-03-29T06:52:15.325Z,73.79
2023-03-29T06:53:15.492Z,73.13
2023-03-29T06:54:15.717Z,72.96
2023-03-29T06:55:15.944Z,72.74
2023-03-29T06:56:16.182Z,73.42
2023-03-29T06:57:16.462Z,74.90
2023-03-29T06:58:16.618Z,73.95
2023-03-29T06:59:16.800Z,74.17
2023-03-29T07:00:17.032Z,73.67
2023-03-29T07:01:17.229Z,73.78
2023-03-29T07:02:17.415Z,73.62
2023-03-29T07:03:17.638Z,75.00
2023-03-29T07:04:17.916Z,75.56
2023-03-29T07:05:18.009Z,75.99
2023-03-29T07:06:18.186Z,76.22
2023-03-29T07:07:18.489Z,75.61
2023-03-29T07:08:18.674Z,75.34
2023-03-29T07:09:19.544Z,74.37
2023-03-29T07:10:19.092Z,75.26
2023-03-29T07:11:19.315Z,74.86
2023-03-29T07:12:19.515Z,74.61
2023-03-29T07:13:19.739Z,73.86
2023-03-29T07:14:19.947Z,74.27
2023-03-29T07:15:20.156Z,73.46
2023-03-29T07:16:20.431Z,73.83
2023-03-29T07:17:20.592Z,73.22
2023-03-29T07:18:20.821Z,73.79
2023-03-29T07:19:21.038Z,73.60
2023-03-29T07:20:21.274Z,73.34
2023-03-29T07:21:21.504Z,73.49
2023-03-29T07:22:21.743Z,73.86
2023-03-29T07:23:21.944Z,74.68
2023-03-29T07:24:22.168Z,74.77
2023-03-29T07:25:22.469Z,74.29
2023-03-29T07:26:28.400Z,74.70
2023-03-29T07:27:23.811Z,74.56
2023-03-29T07:28:22.972Z,74.49
2023-03-29T07:29:23.130Z,74.41
2023-03-29T07:30:23.313Z,74.11
2023-03-29T07:31:23.474Z,75.32
2023-03-29T07:32:23.726Z,76.00
2023-03-29T07:33:23.890Z,75.95
2023-03-29T07:34:24.011Z,75.52
2023-03-29T07:35:24.193Z,74.84
2023-03-29T07:36:24.327Z,75.03
2023-03-29T07:37:24.515Z,74.49
2023-03-29T07:38:24.703Z,75.04
2023-03-29T07:39:24.885Z,75.36
2023-03-29T07:40:25.186Z,75.14
2023-03-29T07:41:25.281Z,75.18
2023-03-29T07:42:25.495Z,75.52
2023-03-29T07:43:25.741Z,75.04
2023-03-29T07:44:25.952Z,75.52
2023-03-29T07:45:28.090Z,75.51
2023-03-29T07:46:26.520Z,74.79
2023-03-29T07:47:26.634Z,74.91
2023-03-29T07:48:26.867Z,75.03
2023-03-29T07:49:27.064Z,75.63
2023-03-29T07:50:27.276Z,75.54
2023-03-29T07:51:27.488Z,75.52
2023-03-29T07:52:27.712Z,75.32
2023-03-29T07:53:27.952Z,76.57
2023-03-29T07:54:28.187Z,76.38
2023-03-29T07:55:29.448Z,76.47
2023-03-29T07:56:28.668Z,76.60
2023-03-29T07:57:29.010Z,76.66
2023-03-29T07:58:29.166Z,75.75
2023-03-29T07:59:29.322Z,76.17
2023-03-29T08:00:29.573Z,76.40
2023-03-29T08:01:29.840Z,75.42
2023-03-29T08:03:30.239Z,75.12
2023-03-29T08:04:30.598Z,74.75
2023-03-29T08:05:40.846Z,75.09
2023-03-29T08:06:31.820Z,75.69
2023-03-29T08:07:30.981Z,75.53
2023-03-29T08:08:31.175Z,75.12
2023-03-29T08:09:31.346Z,74.86
2023-03-29T08:10:31.575Z,75.81
2023-03-29T08:11:31.713Z,76.01
2023-03-29T08:12:31.909Z,76.08
2023-03-29T08:13:32.368Z,75.62
2023-03-29T08:14:32.294Z,75.49
2023-03-29T08:15:32.493Z,74.88
2023-03-29T08:16:33.413Z,74.78
2023-03-29T08:17:32.893Z,73.82
2023-03-29T08:18:34.858Z,73.34
2023-03-29T08:19:33.192Z,72.35
2023-03-29T08:20:33.418Z,74.20
2023-03-29T08:21:33.607Z,75.55
2023-03-29T08:22:33.868Z,74.33
2023-03-29T08:23:34.031Z,77.65
2023-03-29T08:24:34.262Z,79.40
2023-03-29T08:25:34.509Z,79.72
2023-03-29T08:26:34.801Z,79.53
2023-03-29T08:27:35.010Z,78.88
2023-03-29T08:28:35.220Z,78.00
2023-03-29T08:29:36.312Z,77.12
2023-03-29T08:30:35.656Z,76.58
2023-03-29T08:31:35.985Z,76.06
2023-03-29T08:32:36.160Z,75.10
2023-03-29T08:33:36.332Z,75.30
2023-03-29T08:34:36.546Z,74.96
2023-03-29T08:35:36.781Z,74.71
2023-03-29T08:36:36.978Z,74.48
2023-03-29T08:37:37.165Z,74.05
2023-03-29T08:38:37.358Z,73.52
2023-03-29T08:39:37.571Z,74.30
2023-03-29T08:40:37.827Z,74.21
2023-03-29T08:41:37.997Z,74.02
2023-03-29T08:42:38.199Z,73.33
2023-03-29T08:43:38.372Z,72.82
2023-03-29T08:44:38.602Z,73.18
2023-03-29T08:45:38.755Z,73.37
2023-03-29T08:46:39.004Z,73.39
2023-03-29T08:47:39.191Z,76.16
2023-03-29T08:48:40.348Z,77.39
2023-03-29T08:49:39.623Z,77.46
2023-03-29T08:50:39.927Z,76.41
2023-03-29T08:51:40.863Z,75.50
2023-03-29T08:52:40.297Z,75.01
2023-03-29T08:53:40.491Z,74.32
2023-03-29T08:54:41.352Z,74.54
2023-03-29T08:55:43.862Z,74.03
2023-03-29T08:56:41.038Z,72.88
2023-03-29T08:57:41.165Z,73.07
2023-03-29T08:58:41.304Z,72.66
2023-03-29T08:59:41.457Z,71.93
2023-03-29T09:00:41.610Z,73.82
2023-03-29T09:01:41.808Z,74.06
2023-03-29T09:02:42.016Z,73.68
2023-03-29T09:03:42.220Z,73.92
2023-03-29T09:04:44.018Z,73.50
2023-03-29T09:05:42.415Z,73.93
2023-03-29T09:06:42.574Z,72.95
2023-03-29T09:07:42.728Z,72.73
2023-03-29T09:08:42.918Z,74.24
2023-03-29T09:09:43.066Z,74.63
2023-03-29T09:10:44.234Z,76.02
2023-03-29T09:11:43.369Z,76.68
2023-03-29T09:12:43.574Z,77.09
2023-03-29T09:13:43.711Z,75.85
2023-03-29T09:14:43.871Z,75.40
2023-03-29T09:15:44.067Z,73.13
2023-03-29T09:16:44.204Z,73.37
2023-03-29T09:17:44.401Z,73.73
2023-03-29T09:18:44.516Z,72.86
2023-03-29T09:19:44.666Z,72.21
2023-03-29T09:20:44.831Z,71.88
2023-03-29T09:21:44.965Z,71.44
2023-03-29T09:22:45.112Z,71.00
2023-03-29T09:23:45.316Z,70.87
2023-03-29T09:24:45.501Z,70.59
2023-03-29T09:26:45.848Z,71.44
2023-03-29T09:27:46.027Z,71.20
2023-03-29T09:28:46.179Z,70.99
2023-03-29T09:29:46.341Z,71.80
2023-03-29T09:30:46.490Z,71.17
2023-03-29T09:31:47.427Z,71.55
2023-03-29T09:32:46.867Z,70.18
2023-03-29T09:33:46.992Z,70.54
2023-03-29T09:34:47.157Z,69.75
2023-03-29T09:35:47.363Z,69.81
2023-03-29T09:36:47.484Z,70.32
2023-03-29T09:37:47.667Z,70.60
2023-03-29T09:38:47.837Z,70.15
2023-03-29T09:39:48.012Z,69.65
2023-03-29T09:40:48.207Z,70.22
2023-03-29T09:41:48.349Z,70.10
2023-03-29T09:42:48.522Z,70.14
2023-03-29T09:43:48.739Z,70.32
2023-03-29T09:44:48.876Z,71.30
2023-03-29T09:45:49.115Z,70.18
2023-03-29T09:46:49.260Z,70.62
2023-03-29T09:47:49.490Z,71.12
2023-03-29T09:48:49.663Z,71.38
2023-03-29T09:49:49.848Z,72.41
2023-03-29T09:50:50.057Z,71.83
2023-03-29T09:51:50.197Z,71.62
2023-03-29T09:52:50.360Z,70.47
2023-03-29T09:53:50.500Z,70.68
2023-03-29T09:54:50.649Z,71.93
2023-03-29T09:55:50.802Z,70.76
2023-03-29T09:56:50.972Z,71.91
2023-03-29T09:57:51.100Z,72.00
2023-03-29T09:58:51.271Z,71.47
2023-03-29T09:59:51.724Z,71.97
2023-03-29T10:00:51.634Z,72.25
2023-03-29T10:01:51.982Z,72.54
2023-03-29T10:02:52.058Z,71.51
2023-03-29T10:03:52.294Z,72.34
2023-03-29T10:04:52.410Z,72.01
2023-03-29T10:05:52.624Z,72.55
2023-03-29T10:06:52.809Z,72.12
2023-03-29T10:07:52.995Z,72.65
2023-03-29T10:08:53.972Z,73.43
2023-03-29T10:09:53.348Z,71.54
2023-03-29T10:10:53.534Z,71.11
2023-03-29T10:11:53.681Z,71.84
2023-03-29T10:12:53.863Z,71.44
2023-03-29T10:13:54.046Z,72.20
2023-03-29T10:14:54.328Z,71.36
2023-03-29T10:15:54.421Z,70.84
2023-03-29T10:16:54.766Z,70.69
2023-03-29T10:17:54.829Z,70.92
2023-03-29T10:18:54.972Z,70.16
2023-03-29T10:19:55.142Z,70.16
2023-03-29T10:20:55.283Z,70.21
2023-03-29T10:21:55.448Z,70.99
2023-03-29T10:22:55.599Z,71.99
2023-03-29T10:23:55.792Z,70.87
2023-03-29T10:24:55.996Z,72.40
2023-03-29T10:25:56.220Z,71.87
2023-03-29T10:26:56.409Z,73.08
2023-03-29T10:27:56.579Z,73.02
2023-03-29T10:28:56.833Z,72.48
2023-03-29T10:29:56.945Z,73.50
2023-03-29T10:30:57.099Z,72.63
2023-03-29T10:31:57.296Z,71.48
2023-03-29T10:32:57.466Z,70.76
2023-03-29T10:33:57.580Z,70.59
2023-03-29T10:34:57.769Z,70.28
2023-03-29T10:35:57.965Z,69.96
2023-03-29T10:36:58.126Z,71.69
2023-03-29T10:37:58.309Z,71.42
2023-03-29T10:38:58.467Z,70.90
2023-03-29T10:39:58.625Z,71.16
2023-03-29T10:40:58.772Z,70.27
2023-03-29T10:41:58.941Z,70.58
2023-03-29T10:42:59.089Z,71.30
2023-03-29T10:43:59.280Z,70.63
2023-03-29T10:44:59.534Z,71.28
2023-03-29T10:45:59.661Z,70.34
2023-03-29T10:46:59.848Z,70.03
2023-03-29T10:48:00.120Z,69.49
2023-03-29T10:49:00.224Z,69.43
2023-03-29T10:50:00.421Z,68.76
2023-03-29T10:51:00.750Z,69.47
2023-03-29T10:52:00.763Z,68.86
2023-03-29T10:53:00.925Z,69.62
2023-03-29T10:54:01.106Z,70.88
2023-03-29T10:55:01.294Z,70.60
2023-03-29T10:56:01.478Z,70.33
2023-03-29T10:57:01.693Z,70.31
2023-03-29T10:58:01.782Z,69.09
2023-03-29T10:59:01.980Z,68.31
2023-03-29T11:00:02.280Z,68.74
2023-03-29T11:01:02.462Z,69.10
2023-03-29T11:02:02.632Z,68.87
2023-03-29T11:03:02.796Z,68.83
2023-03-29T11:04:03.008Z,68.27
2023-03-29T11:05:03.088Z,68.35
2023-03-29T11:06:03.323Z,68.84
2023-03-29T11:07:03.445Z,67.51
2023-03-29T11:08:03.602Z,67.22
2023-03-29T11:09:03.759Z,67.81
2023-03-29T11:10:03.978Z,67.26
2023-03-29T11:11:04.333Z,67.57
2023-03-29T11:12:15.074Z,67.77
2023-03-29T11:13:05.538Z,68.49
2023-03-29T11:14:04.676Z,69.11
2023-03-29T11:15:04.835Z,68.26
2023-03-29T11:16:05.044Z,68.77
2023-03-29T11:17:05.192Z,68.59
2023-03-29T11:18:05.290Z,68.96
2023-03-29T11:19:05.414Z,69.02
2023-03-29T11:20:05.561Z,68.03
2023-03-29T11:21:10.210Z,68.68
2023-03-29T11:22:05.817Z,68.03
2023-03-29T11:23:05.980Z,67.37
2023-03-29T11:24:06.128Z,67.88
2023-03-29T11:25:06.297Z,67.75
2023-03-29T11:26:06.446Z,67.61
2023-03-29T11:27:06.613Z,68.66
2023-03-29T11:28:06.754Z,69.49
2023-03-29T11:29:06.889Z,69.41
2023-03-29T11:30:07.030Z,68.35
2023-03-29T11:31:07.198Z,67.40
2023-03-29T11:32:07.276Z,67.44
2023-03-29T11:33:07.416Z,68.21
2023-03-29T11:34:07.571Z,68.18
2023-03-29T11:35:07.797Z,68.18
2023-03-29T11:36:08.001Z,67.23
2023-03-29T11:37:08.163Z,66.84
2023-03-29T11:38:08.347Z,67.68
2023-03-29T11:39:08.530Z,68.21
2023-03-29T11:40:08.717Z,68.76
2023-03-29T11:41:08.881Z,69.68
2023-03-29T11:42:09.057Z,69.64
2023-03-29T11:43:09.216Z,70.40
2023-03-29T11:44:09.378Z,70.29
2023-03-29T11:45:09.548Z,71.21
2023-03-29T11:46:09.739Z,71.21
2023-03-29T11:47:09.870Z,71.72
2023-03-29T11:48:10.025Z,70.00
2023-03-29T11:49:10.135Z,71.19
2023-03-29T11:50:10.343Z,71.33
2023-03-29T11:51:10.415Z,70.41
2023-03-29T11:52:10.606Z,70.57
2023-03-29T11:53:10.732Z,71.32
2023-03-29T11:54:10.889Z,71.78
2023-03-29T11:55:11.051Z,71.28
2023-03-29T11:56:11.196Z,71.47
2023-03-29T11:57:11.417Z,70.73
2023-03-29T11:58:11.546Z,71.85
2023-03-29T11:59:11.728Z,71.90
2023-03-29T12:00:11.880Z,72.07
2023-03-29T12:01:12.090Z,72.98
2023-03-29T12:02:12.274Z,72.59
2023-03-29T12:03:12.447Z,73.15
2023-03-29T12:04:13.450Z,73.92
2023-03-29T12:05:12.793Z,74.74
2023-03-29T12:06:12.932Z,73.78
2023-03-29T12:07:13.114Z,74.07
2023-03-29T12:08:13.311Z,73.35
2023-03-29T12:10:13.668Z,72.88
2023-03-29T12:11:13.831Z,72.99
2023-03-29T12:12:13.981Z,74.34
2023-03-29T12:13:14.167Z,75.88
2023-03-29T12:14:14.352Z,74.90
2023-03-29T12:15:14.557Z,74.31
2023-03-29T12:16:14.790Z,75.04
2023-03-29T12:17:14.936Z,74.75
2023-03-29T12:18:15.151Z,74.61
2023-03-29T12:19:15.321Z,74.55
2023-03-29T12:20:15.482Z,73.57
2023-03-29T12:21:15.669Z,73.23
2023-03-29T12:22:15.833Z,73.60
2023-03-29T12:23:16.007Z,73.92
2023-03-29T12:24:16.182Z,72.88
2023-03-29T12:25:17.897Z,73.01
2023-03-29T12:26:16.554Z,72.51
2023-03-29T12:27:16.747Z,71.82
2023-03-29T12:28:16.943Z,71.21
2023-03-29T12:29:17.133Z,71.55
2023-03-29T12:30:17.357Z,70.53
2023-03-29T12:31:17.584Z,70.67
2023-03-29T12:32:17.725Z,71.15
2023-03-29T12:33:17.925Z,71.13
2023-03-29T12:34:18.017Z,70.05
2023-03-29T12:35:18.122Z,70.81
2023-03-29T12:36:18.335Z,71.97
2023-03-29T12:37:18.452Z,72.09
2023-03-29T12:38:18.630Z,71.80
2023-03-29T12:39:18.835Z,71.97
2023-03-29T12:40:18.961Z,71.37
2023-03-29T12:41:19.219Z,70.79
2023-03-29T12:42:19.319Z,71.78
2023-03-29T12:43:19.503Z,72.13
2023-03-29T12:44:19.655Z,70.95
2023-03-29T12:45:19.815Z,73.34
2023-03-29T12:46:20.053Z,73.77
2023-03-29T12:47:20.164Z,74.07
2023-03-29T12:48:20.350Z,73.99
2023-03-29T12:49:21.180Z,74.52
2023-03-29T12:50:20.701Z,75.99
2023-03-29T12:51:20.880Z,76.31
2023-03-29T12:52:21.069Z,76.29
2023-03-29T12:53:21.267Z,75.47
2023-03-29T12:54:21.460Z,74.59
2023-03-29T12:55:21.614Z,75.42
2023-03-29T12:56:21.786Z,74.57
2023-03-29T12:57:21.991Z,74.80
2023-03-29T12:58:22.068Z,74.39